Dallas, Texas
Current Conditions -  °F | °C
As of 6:53 AM on Saturday 25 Oct 2014 (Local Time) from KDAL Reporting Station
Clear Clear  
Wind Chill: 66°   Ceiling: Unl
Heat Index: 66°   Visibility: 10mi
Dew Point: 57°   Wind: 8mph
Humidity: 73%   Direction: 150°SSE
Pressure: 30.12"   Gusts: NA
Location:  32.78°N, 96.79°W
Report Text: KDAL 251153Z 15007KT 10SM CLR 19/14 A3012 RMK AO2 SLP193 T01890139 10217 20183 53005
Loading
Personal Weather Stations






























Interactive Weather Map
Tropical Storm Tracking
New forecast layout! Learn more

10-Day Weather Forecast

Advertisements
Track Severe Weather on mobile